9I0 weather

Havana Regional Airport
Havana, Illinois, United States

Public forecast

Using degrees Fahrenheit for public forecast. Weather courtesy of forecast.io.

METAR (pilot weather report)

Closest report is Abraham Lincoln Capital Airport, 27.7 nm (51.3 km) SE. Retrieved 2019/06/26 03:01 UTC (31 minutes ago):

KSPI 260301Z AUTO 31014G33KT 10SM -RA FEW050 BKN070 BKN090 23/14 A3006 RMK AO2 PK WND 33033/0253 WSHFT 0241 LTG DSNT N-E RAB0259 P0000 T02280144

TAF (pilot weather forecast)

Forecast is more than 12 hours old.

Closest forecast is Abraham Lincoln Capital Airport, 27.7 nm (51.3 km) SE. Retrieved 2019/06/25 00:30 UTC (1 day ago):

TAF KSPI 252328Z 2600/2624 21013G23KT P6SM FEW100 FM260200 21006KT P6SM FEW040 SCT150 FM261900 21011KT P6SM SCT250